Time;durP1;ratioP1;P1;durP2;ratioP2;P2;SDS_P1;SDS_P2;PMS_P1;PMS_P2;Temp;Humidity;BMP_temperature;BMP_pressure;BME280_temperature;BME280_humidity;BME280_pressure;Samples;Min_cycle;Max_cycle;Signal;HPM_P1;HPM_P2
2023/09/14 00:00:46;;;;;;;;;18.67;18.67;;;;;21.75;63.76;101593.88;5037082;28;45222;-71
2023/09/14 00:03:13;;;;;;;;;16.67;16.67;;;;;21.85;63.90;101607.09;5037315;28;45218;-70
2023/09/14 00:05:42;;;;;;;;;17.00;14.33;;;;;21.85;63.45;101604.38;5035711;28;45487;-70
2023/09/14 00:08:09;;;;;;;;;16.33;15.33;;;;;21.84;63.43;101605.41;5036777;28;45735;-69
2023/09/14 00:10:35;;;;;;;;;13.00;12.67;;;;;21.88;63.30;101609.38;5036615;28;45330;-70
2023/09/14 00:13:00;;;;;;;;;17.33;16.33;;;;;21.83;63.84;101593.75;5018985;28;45381;-70
2023/09/14 00:15:25;;;;;;;;;15.33;14.33;;;;;21.92;63.99;101609.81;5036789;28;47819;-69
2023/09/14 00:17:51;;;;;;;;;17.33;14.33;;;;;21.80;63.58;101585.16;5023093;28;46474;-70
2023/09/14 00:20:22;;;;;;;;;15.00;15.00;;;;;21.92;63.90;101605.25;5036479;28;45932;-69
2023/09/14 00:22:50;;;;;;;;;12.67;12.67;;;;;21.83;63.90;101604.56;5036825;28;45428;-69
2023/09/14 00:25:16;;;;;;;;;16.00;14.67;;;;;21.83;63.64;101601.03;5037163;28;45396;-70
2023/09/14 00:27:42;;;;;;;;;17.33;15.67;;;;;21.78;63.89;101598.06;5036430;28;46213;-70
2023/09/14 00:30:07;;;;;;;;;15.33;15.33;;;;;21.81;63.72;101597.66;5036388;28;45456;-70
2023/09/14 00:32:38;;;;;;;;;16.00;15.33;;;;;21.75;63.38;101593.03;5036936;28;45241;-71
2023/09/14 00:35:05;;;;;;;;;15.00;12.67;;;;;21.80;63.22;101601.41;5036592;28;45297;-69
2023/09/14 00:37:31;;;;;;;;;16.00;14.67;;;;;21.74;63.59;101608.44;5036267;28;47043;-70
2023/09/14 00:39:56;;;;;;;;;15.33;14.00;;;;;21.70;63.58;101600.91;5036422;28;45234;-69
2023/09/14 00:42:21;;;;;;;;;17.67;14.33;;;;;21.77;63.76;101615.34;5036785;28;45353;-70
2023/09/14 00:44:47;;;;;;;;;16.00;15.00;;;;;21.76;64.24;101608.25;5019014;28;45414;-69
2023/09/14 00:47:12;;;;;;;;;17.00;14.67;;;;;21.75;64.39;101615.53;5025512;28;63947;-70
2023/09/14 00:49:38;;;;;;;;;15.67;14.67;;;;;21.70;64.09;101601.75;5015984;28;45474;-70
2023/09/14 00:52:06;;;;;;;;;17.33;16.00;;;;;21.31;64.59;101548.16;5016819;28;45491;-71
2023/09/14 00:54:31;;;;;;;;;16.00;15.67;;;;;21.58;64.64;101603.31;5016608;28;45590;-71
2023/09/14 00:56:57;;;;;;;;;13.33;12.00;;;;;21.61;64.75;101613.75;5016368;28;45622;-69
2023/09/14 00:59:22;;;;;;;;;13.00;12.33;;;;;21.55;64.40;101604.53;5016460;28;45479;-69
2023/09/14 01:01:48;;;;;;;;;11.33;11.33;;;;;21.52;64.87;101604.94;5016458;28;45348;-69
2023/09/14 01:04:14;;;;;;;;;15.33;15.33;;;;;21.62;64.66;101609.16;5016683;28;45425;-70
2023/09/14 01:06:40;;;;;;;;;15.33;15.33;;;;;21.30;64.77;101557.28;5016848;28;46346;-70
2023/09/14 01:09:05;;;;;;;;;14.67;14.67;;;;;21.61;64.51;101612.91;5019578;28;45351;-69
2023/09/14 01:11:31;;;;;;;;;17.67;16.67;;;;;21.47;64.59;101593.88;5019721;28;45416;-68
2023/09/14 01:14:29;;;;;;;;;10.33;10.33;;;;;21.54;64.88;101613.69;5019910;28;45226;-71
2023/09/14 01:17:18;;;;;;;;;13.67;13.67;;;;;21.51;64.51;101611.38;5026235;28;45980;-70
2023/09/14 01:20:30;;;;;;;;;15.67;15.67;;;;;21.53;65.10;101617.44;5038658;28;45360;-70
2023/09/14 01:23:18;;;;;;;;;13.67;12.67;;;;;21.52;65.13;101621.16;5039818;28;45351;-70
2023/09/14 01:25:46;;;;;;;;;15.67;14.67;;;;;21.55;64.91;101618.06;5039634;28;45408;-70
2023/09/14 01:28:13;;;;;;;;;14.33;13.67;;;;;21.49;65.14;101616.16;5039223;28;45598;-70
2023/09/14 01:30:40;;;;;;;;;16.67;15.67;;;;;21.44;65.31;101624.03;5021220;28;45334;-70
2023/09/14 01:33:09;;;;;;;;;15.00;14.00;;;;;21.37;65.63;101609.56;5039281;28;45433;-69
2023/09/14 01:35:40;;;;;;;;;15.00;15.00;;;;;21.37;65.74;101612.28;5039478;28;45452;-70
2023/09/14 01:38:06;;;;;;;;;12.33;11.00;;;;;21.36;65.73;101609.78;5038866;28;46850;-70
2023/09/14 01:40:34;;;;;;;;;18.33;17.00;;;;;21.35;66.00;101616.22;5039197;28;45489;-70
2023/09/14 01:43:01;;;;;;;;;15.67;15.67;;;;;21.31;66.08;101607.66;5039271;28;45455;-69
2023/09/14 01:45:27;;;;;;;;;16.33;15.00;;;;;20.98;66.07;101553.22;5039254;28;45562;-70
2023/09/14 01:47:53;;;;;;;;;18.33;17.33;;;;;21.25;65.88;101603.03;5023500;28;46968;-69
2023/09/14 01:50:18;;;;;;;;;20.67;15.00;;;;;21.30;65.71;101605.16;5018804;28;45353;-69
2023/09/14 01:52:44;;;;;;;;;17.67;17.00;;;;;21.22;66.44;101603.34;5019179;28;45276;-69
2023/09/14 01:55:10;;;;;;;;;22.33;21.00;;;;;21.24;66.54;101612.19;5019423;28;45441;-69
2023/09/14 01:57:35;;;;;;;;;13.67;12.67;;;;;21.22;66.53;101609.63;5019161;28;45689;-71
2023/09/14 02:00:01;;;;;;;;;16.33;16.33;;;;;21.20;66.55;101606.25;5023669;28;45488;-69
2023/09/14 02:02:27;;;;;;;;;20.33;15.33;;;;;20.81;66.94;101546.38;5038861;28;45922;-69
2023/09/14 02:04:52;;;;;;;;;15.33;14.33;;;;;21.05;67.01;101605.50;5037498;28;45448;-69
2023/09/14 02:07:17;;;;;;;;;17.67;16.67;;;;;20.96;66.98;101604.75;5038637;28;45762;-69
2023/09/14 02:09:43;;;;;;;;;16.33;14.00;;;;;20.93;67.20;101605.16;5038549;28;45321;-70
2023/09/14 02:12:08;;;;;;;;;19.33;15.67;;;;;20.67;67.50;101561.63;5038512;28;48278;-69
2023/09/14 02:14:33;;;;;;;;;18.00;17.00;;;;;20.99;67.65;101608.94;5020912;28;45549;-69
2023/09/14 02:16:59;;;;;;;;;21.00;16.33;;;;;20.88;67.87;101596.78;5030990;28;46970;-70
2023/09/14 02:19:24;;;;;;;;;17.33;15.33;;;;;20.96;67.91;101609.34;5017786;28;45341;-70
2023/09/14 02:21:49;;;;;;;;;17.33;16.00;;;;;20.88;68.14;101604.06;5018581;28;45313;-70
2023/09/14 02:24:14;;;;;;;;;17.33;15.67;;;;;20.89;68.36;101605.72;5018498;28;46704;-70
2023/09/14 02:26:40;;;;;;;;;16.00;16.00;;;;;20.77;68.40;101596.44;5018436;28;46358;-70
2023/09/14 02:29:05;;;;;;;;;17.00;17.00;;;;;20.86;68.35;101606.94;5018487;28;45334;-71
2023/09/14 02:31:31;;;;;;;;;21.00;18.67;;;;;20.86;68.62;101609.66;5018609;28;45333;-70
2023/09/14 02:33:57;;;;;;;;;15.33;15.33;;;;;20.83;68.58;101604.63;5018387;28;45543;-70
2023/09/14 02:36:25;;;;;;;;;18.67;16.67;;;;;20.89;68.37;101603.03;5018034;28;45601;-70
2023/09/14 02:38:50;;;;;;;;;14.67;14.67;;;;;20.88;68.34;101604.91;5018093;28;45509;-70
2023/09/14 02:41:15;;;;;;;;;16.00;16.00;;;;;20.77;68.43;101583.75;5018528;28;45761;-71
2023/09/14 02:43:41;;;;;;;;;17.33;14.67;;;;;20.64;68.46;101553.91;5018622;28;45458;-69
2023/09/14 02:46:06;;;;;;;;;16.00;15.00;;;;;20.84;68.44;101600.91;5020071;28;46644;-70
2023/09/14 02:48:31;;;;;;;;;19.67;18.33;;;;;20.71;68.57;101575.59;5037912;28;52396;-70
2023/09/14 02:50:57;;;;;;;;;15.33;15.33;;;;;20.84;68.60;101597.38;5036258;28;45530;-69
2023/09/14 02:53:22;;;;;;;;;18.67;17.33;;;;;20.55;69.01;101553.16;5038264;28;45311;-71
2023/09/14 02:55:48;;;;;;;;;15.33;14.00;;;;;20.78;68.94;101600.81;5037879;28;45828;-69
2023/09/14 02:58:13;;;;;;;;;23.33;18.67;;;;;20.64;68.71;101583.63;5037778;28;47245;-69
2023/09/14 03:00:41;;;;;;;;;17.33;17.33;;;;;20.69;69.15;101586.59;5038078;28;45220;-70
2023/09/14 03:03:09;;;;;;;;;16.67;16.67;;;;;20.64;69.40;101587.16;5038273;28;45182;-69
2023/09/14 03:05:34;;;;;;;;;20.67;17.00;;;;;20.64;69.28;101597.13;5037338;28;46987;-69
2023/09/14 03:08:00;;;;;;;;;17.33;15.33;;;;;20.64;69.53;101594.44;5037668;28;45241;-70
2023/09/14 03:10:25;;;;;;;;;17.33;17.33;;;;;20.59;69.29;101576.06;5037919;28;45833;-70
2023/09/14 03:12:50;;;;;;;;;22.00;19.33;;;;;20.60;69.41;101587.69;5037961;28;45415;-69
2023/09/14 03:15:16;;;;;;;;;21.00;17.00;;;;;20.60;69.56;101587.69;5037239;28;58472;-70
2023/09/14 03:17:41;;;;;;;;;17.33;15.33;;;;;20.61;69.41;101589.38;5037396;28;45573;-69
2023/09/14 03:20:07;;;;;;;;;15.33;15.33;;;;;20.58;69.56;101587.06;5018066;28;45304;-69
2023/09/14 03:22:32;;;;;;;;;18.33;16.67;;;;;20.53;69.36;101578.69;5000238;28;45266;-70
2023/09/14 03:24:58;;;;;;;;;16.00;15.00;;;;;20.53;69.66;101582.22;5017506;28;46341;-70
2023/09/14 03:27:23;;;;;;;;;21.33;17.67;;;;;20.55;69.51;101585.56;5017590;28;45403;-69
2023/09/14 03:29:48;;;;;;;;;16.33;16.33;;;;;20.54;69.38;101583.06;5016610;28;45504;-69
2023/09/14 03:32:14;;;;;;;;;19.33;17.33;;;;;20.47;69.43;101571.34;5017615;28;45313;-70
2023/09/14 03:34:39;;;;;;;;;25.67;21.33;;;;;20.48;69.63;101583.81;5016975;28;49869;-70
2023/09/14 03:37:04;;;;;;;;;23.33;19.67;;;;;20.16;69.79;101537.25;5017799;28;45448;-70
2023/09/14 03:39:30;;;;;;;;;20.33;17.33;;;;;20.34;69.66;101567.41;5017475;28;45285;-70
2023/09/14 03:41:55;;;;;;;;;18.00;17.00;;;;;20.43;69.77;101578.16;5017133;28;45537;-70
2023/09/14 03:44:20;;;;;;;;;22.00;17.67;;;;;20.41;69.57;101581.03;5016746;28;46391;-70
2023/09/14 03:46:46;;;;;;;;;17.67;16.67;;;;;20.38;69.93;101572.44;4999368;28;45378;-69
2023/09/14 03:49:11;;;;;;;;;19.00;18.33;;;;;20.36;69.83;101575.31;5017189;28;47669;-70
2023/09/14 03:51:36;;;;;;;;;22.33;21.00;;;;;20.21;70.14;101552.88;5016658;28;51698;-70
2023/09/14 03:54:02;;;;;;;;;19.67;17.33;;;;;20.26;69.98;101555.88;5016236;28;66747;-70
2023/09/14 03:56:27;;;;;;;;;17.00;16.00;;;;;20.33;70.30;101570.31;5017328;28;45355;-69
2023/09/14 03:58:52;;;;;;;;;21.33;19.33;;;;;20.35;69.90;101569.09;5017256;28;45195;-70
2023/09/14 04:01:18;;;;;;;;;17.67;17.00;;;;;20.38;69.81;101583.22;5017425;28;45524;-69
2023/09/14 04:03:44;;;;;;;;;16.67;16.33;;;;;20.30;70.04;101557.19;5015446;28;46672;-70
2023/09/14 04:06:09;;;;;;;;;21.33;20.67;;;;;20.26;69.70;101554.03;5016679;28;45373;-69
2023/09/14 04:08:35;;;;;;;;;28.33;22.33;;;;;20.33;69.83;101565.72;5016347;28;56572;-70
2023/09/14 04:11:01;;;;;;;;;18.00;18.00;;;;;19.71;70.04;101462.75;5017198;28;45399;-71
2023/09/14 04:13:32;;;;;;;;;20.67;20.00;;;;;20.30;70.32;101568.81;5016557;28;46091;-70
2023/09/14 04:15:59;;;;;;;;;21.67;19.67;;;;;20.24;69.91;101556.06;5016666;28;45466;-72
2023/09/14 04:18:25;;;;;;;;;23.00;22.00;;;;;20.22;70.27;101552.72;5016769;28;45463;-70
2023/09/14 04:20:51;;;;;;;;;20.33;20.33;;;;;20.21;69.94;101550.19;5016832;28;45401;-69
2023/09/14 04:23:17;;;;;;;;;20.00;20.00;;;;;20.24;70.01;101556.06;5016476;28;45625;-70
2023/09/14 04:25:46;;;;;;;;;15.00;15.00;;;;;20.27;69.73;101565.66;5016769;28;45321;-70
2023/09/14 04:28:15;;;;;;;;;19.00;18.00;;;;;20.20;69.93;101552.06;5016809;28;45326;-69
2023/09/14 04:30:45;;;;;;;;;21.67;18.67;;;;;20.29;69.69;101569.00;5017035;28;45517;-69
2023/09/14 04:33:12;;;;;;;;;28.33;23.67;;;;;20.18;69.72;101551.41;5014793;28;48489;-71
2023/09/14 04:35:37;;;;;;;;;21.00;20.67;;;;;20.20;69.41;101545.81;5016092;28;45274;-70
2023/09/14 04:38:03;;;;;;;;;21.33;19.67;;;;;20.33;69.57;101573.00;5016508;28;45266;-71
2023/09/14 04:40:28;;;;;;;;;20.67;18.33;;;;;20.34;69.54;101567.41;5016588;28;45482;-69
2023/09/14 04:42:53;;;;;;;;;22.00;18.33;;;;;20.33;69.70;101571.13;5018507;28;63342;-70
2023/09/14 04:45:19;;;;;;;;;18.67;17.00;;;;;20.35;69.87;101568.25;5019514;28;55629;-69
2023/09/14 04:47:44;;;;;;;;;19.00;16.67;;;;;20.35;69.83;101565.53;5020296;28;45703;-70
2023/09/14 04:50:09;;;;;;;;;15.67;15.33;;;;;20.38;69.56;101570.56;5019740;28;45325;-70
2023/09/14 04:52:35;;;;;;;;;21.33;20.33;;;;;20.14;69.79;101533.91;5019638;28;46914;-70
2023/09/14 04:55:00;;;;;;;;;18.67;15.33;;;;;20.27;69.91;101562.97;5019666;28;45332;-69
2023/09/14 04:57:25;;;;;;;;;18.67;17.33;;;;;20.30;69.77;101566.13;5019969;28;45498;-71
2023/09/14 04:59:51;;;;;;;;;18.67;18.67;;;;;20.32;69.89;101572.16;5020070;28;45224;-70
2023/09/14 05:02:16;;;;;;;;;19.67;19.33;;;;;20.32;69.97;101569.47;5018332;28;47815;-71
2023/09/14 05:04:41;;;;;;;;;19.33;15.67;;;;;20.21;70.00;101559.13;5018787;28;58704;-70
2023/09/14 05:07:07;;;;;;;;;16.67;15.00;;;;;20.28;70.00;101570.03;5019677;28;45314;-70
2023/09/14 05:09:32;;;;;;;;;24.33;20.33;;;;;20.22;70.19;101566.22;5018302;28;45342;-70
2023/09/14 05:11:57;;;;;;;;;21.00;18.67;;;;;20.26;69.93;101574.78;5018579;28;68308;-71
2023/09/14 05:14:23;;;;;;;;;18.33;18.33;;;;;20.30;69.87;101590.41;5019019;28;45352;-69
2023/09/14 05:16:48;;;;;;;;;17.33;17.33;;;;;20.20;69.93;101567.41;5018179;28;45487;-69
2023/09/14 05:19:13;;;;;;;;;23.00;18.67;;;;;20.28;70.13;101584.38;5027279;28;45403;-70
2023/09/14 05:21:38;;;;;;;;;20.67;19.33;;;;;20.28;70.13;101584.38;5039782;28;67211;-70
2023/09/14 05:24:04;;;;;;;;;21.00;19.00;;;;;20.23;70.26;101577.88;5059445;28;45349;-70
2023/09/14 05:26:29;;;;;;;;;22.67;18.67;;;;;20.26;70.25;101589.13;5059175;28;45320;-68
2023/09/14 05:28:55;;;;;;;;;19.33;18.33;;;;;20.19;70.40;101582.78;5051609;28;45482;-70
2023/09/14 05:31:20;;;;;;;;;26.67;25.00;;;;;20.26;70.13;101605.31;5020821;28;46954;-70
2023/09/14 05:33:45;;;;;;;;;21.67;20.67;;;;;20.26;70.21;101601.78;5057317;28;62800;-69
2023/09/14 05:36:11;;;;;;;;;21.33;19.67;;;;;20.27;70.49;101598.06;5055195;28;45578;-67
2023/09/14 05:38:36;;;;;;;;;26.00;23.33;;;;;20.24;70.38;101599.28;5054323;28;45459;-69
2023/09/14 05:41:03;;;;;;;;;20.67;19.67;;;;;20.27;70.49;101592.66;5058880;28;47559;-69
2023/09/14 05:43:28;;;;;;;;;18.67;17.00;;;;;20.26;70.62;101585.59;5058804;28;45506;-68
2023/09/14 05:45:54;;;;;;;;;19.00;19.00;;;;;19.95;70.34;101539.88;5039443;28;45431;-71
2023/09/14 05:48:19;;;;;;;;;22.00;22.00;;;;;20.30;70.41;101598.53;5038834;28;45226;-71
2023/09/14 05:50:45;;;;;;;;;20.33;20.33;;;;;20.31;70.30;101589.41;5038096;28;45580;-72
2023/09/14 05:53:10;;;;;;;;;19.00;18.00;;;;;20.32;70.37;101591.06;5050412;28;45394;-70
2023/09/14 05:55:35;;;;;;;;;23.67;22.67;;;;;20.34;70.41;101604.38;5058794;28;45250;-71
2023/09/14 05:58:01;;;;;;;;;21.67;17.33;;;;;20.30;70.26;101589.59;5058728;28;45456;-69
2023/09/14 06:00:26;;;;;;;;;21.67;19.67;;;;;20.38;70.11;101604.84;5058074;28;49834;-68
2023/09/14 06:02:52;;;;;;;;;25.33;23.33;;;;;20.31;70.21;101584.00;5058331;28;45189;-69
2023/09/14 06:05:18;;;;;;;;;22.67;21.67;;;;;20.39;70.12;101598.41;5057985;28;45247;-68
2023/09/14 06:07:44;;;;;;;;;22.00;20.67;;;;;20.45;69.97;101611.22;5051363;28;45461;-73
2023/09/14 06:10:09;;;;;;;;;18.67;16.00;;;;;20.48;69.89;101610.84;5021162;28;46499;-70
2023/09/14 06:12:35;;;;;;;;;18.00;17.00;;;;;20.41;69.94;101591.81;5025338;28;45484;-69
2023/09/14 06:15:00;;;;;;;;;27.67;22.33;;;;;20.52;69.53;101612.13;5037259;28;45410;-69
2023/09/14 06:17:26;;;;;;;;;21.33;19.00;;;;;20.59;69.65;101607.63;5024281;28;45448;-70
2023/09/14 06:19:51;;;;;;;;;22.33;22.33;;;;;20.58;69.73;101605.97;5037334;28;46737;-70
2023/09/14 06:22:16;;;;;;;;;25.00;23.33;;;;;20.59;69.53;101596.84;5025888;28;45458;-70
2023/09/14 06:24:42;;;;;;;;;23.33;20.00;;;;;20.71;69.24;101616.13;5058017;28;45403;-71
2023/09/14 06:27:08;;;;;;;;;22.33;22.33;;;;;20.66;68.85;101603.19;5058005;28;45266;-70
2023/09/14 06:29:33;;;;;;;;;22.33;22.00;;;;;20.80;68.93;101607.69;5032230;28;46286;-69
2023/09/14 06:31:58;;;;;;;;;26.67;21.00;;;;;20.84;68.71;101614.41;5037340;28;45263;-70
2023/09/14 06:34:23;;;;;;;;;24.67;20.67;;;;;20.96;68.78;101620.16;5057925;28;45297;-70
2023/09/14 06:36:49;;;;;;;;;27.67;22.33;;;;;21.00;68.31;101617.88;5042542;28;58088;-70
2023/09/14 06:39:14;;;;;;;;;26.00;22.67;;;;;21.05;67.96;101620.88;5031067;28;48075;-70
2023/09/14 06:41:39;;;;;;;;;29.33;25.67;;;;;21.07;67.89;101610.72;5030129;28;45454;-69
2023/09/14 06:44:05;;;;;;;;;27.67;25.00;;;;;21.07;67.53;101616.13;5049684;28;45442;-69
2023/09/14 06:46:30;;;;;;;;;26.33;25.33;;;;;21.07;66.94;101616.13;5026539;28;45329;-70
2023/09/14 06:48:56;;;;;;;;;28.33;27.33;;;;;21.04;67.63;101616.50;5053649;28;47559;-70
2023/09/14 06:51:21;;;;;;;;;26.67;25.00;;;;;20.94;67.60;101612.22;5057567;28;45152;-70
2023/09/14 06:53:47;;;;;;;;;26.00;25.00;;;;;21.06;67.49;101630.66;5057345;28;45347;-70
2023/09/14 06:56:12;;;;;;;;;33.00;22.67;;;;;21.05;67.25;101629.00;5057729;28;45384;-70
2023/09/14 06:58:38;;;;;;;;;27.67;26.67;;;;;20.90;67.11;101589.31;5053687;28;46494;-69
2023/09/14 07:01:05;;;;;;;;;28.33;26.67;;;;;21.21;66.94;101623.31;5054331;28;45355;-70
2023/09/14 07:03:31;;;;;;;;;24.50;23.50;;;;;21.26;66.25;101618.22;5039202;28;45321;-69
2023/09/14 07:05:56;;;;;;;;;29.33;28.67;;;;;21.45;66.67;101630.28;5030777;28;45541;-69
2023/09/14 07:08:22;;;;;;;;;29.33;26.67;;;;;21.55;65.98;101631.59;5035984;28;45601;-69
2023/09/14 07:10:47;;;;;;;;;29.33;28.67;;;;;21.50;65.67;101622.41;5036414;28;45449;-70
2023/09/14 07:13:14;;;;;;;;;24.67;23.33;;;;;21.64;65.77;101642.31;5019410;28;45531;-69
2023/09/14 07:15:39;;;;;;;;;29.67;26.00;;;;;21.68;65.38;101628.19;5033554;28;45468;-69
2023/09/14 07:18:05;;;;;;;;;32.33;30.33;;;;;21.74;65.11;101640.91;5024123;28;46579;-69
2023/09/14 07:20:30;;;;;;;;;36.00;30.67;;;;;21.78;65.41;101638.66;5026072;28;45440;-70
2023/09/14 07:22:55;;;;;;;;;28.67;26.00;;;;;21.73;64.96;101622.19;5024551;28;45327;-70
2023/09/14 07:25:21;;;;;;;;;31.00;27.67;;;;;21.90;64.77;101639.81;5057285;28;45582;-71
2023/09/14 07:27:47;;;;;;;;;28.67;27.00;;;;;21.90;64.85;101620.84;5056568;28;45458;-71
2023/09/14 07:30:14;;;;;;;;;29.67;28.33;;;;;22.01;64.34;101624.88;5056610;28;45530;-69
2023/09/14 07:32:40;;;;;;;;;31.33;27.00;;;;;22.10;64.21;101629.16;5024917;28;45570;-69
2023/09/14 07:35:07;;;;;;;;;31.67;28.00;;;;;22.26;63.40;101636.13;5033715;28;45469;-71
2023/09/14 07:37:32;;;;;;;;;26.67;25.00;;;;;22.29;63.23;101627.59;5029128;28;47748;-69
2023/09/14 07:39:58;;;;;;;;;29.67;28.33;;;;;22.32;62.91;101616.38;5000955;28;46118;-72
2023/09/14 07:42:23;;;;;;;;;29.00;27.00;;;;;22.64;62.73;101628.41;5026595;28;45454;-72
2023/09/14 07:44:48;;;;;;;;;34.00;30.67;;;;;23.07;61.50;101626.28;5024273;28;45334;-70
2023/09/14 07:47:14;;;;;;;;;31.00;28.33;;;;;23.87;59.88;101633.50;5046230;28;46518;-70
2023/09/14 07:49:39;;;;;;;;;34.33;27.33;;;;;24.24;57.76;101576.81;5040518;28;55717;-71
2023/09/14 07:52:05;;;;;;;;;29.67;27.67;;;;;25.23;55.92;101632.63;5033532;28;45426;-69
2023/09/14 07:54:34;;;;;;;;;29.67;27.67;;;;;25.61;53.60;101625.25;5036446;28;45606;-71
2023/09/14 07:56:59;;;;;;;;;30.67;28.33;;;;;26.13;53.25;101628.56;5031098;28;46529;-70
2023/09/14 07:59:25;;;;;;;;;32.00;30.00;;;;;26.68;52.05;101624.00;5025955;28;45405;-70
2023/09/14 08:01:50;;;;;;;;;30.67;25.67;;;;;27.17;51.17;101627.53;5031089;28;55536;-71
2023/09/14 08:04:15;;;;;;;;;28.33;27.00;;;;;27.71;48.34;101609.28;5034922;28;45529;-70
2023/09/14 08:06:40;;;;;;;;;28.00;25.00;;;;;27.74;48.12;101622.47;5023538;28;47326;-70
2023/09/14 08:09:06;;;;;;;;;32.00;27.00;;;;;27.53;48.82;101637.50;5047443;28;45333;-71
2023/09/14 08:11:34;;;;;;;;;23.00;21.33;;;;;28.17;47.40;101640.41;5020915;28;45564;-71
2023/09/14 08:13:59;;;;;;;;;26.00;25.67;;;;;28.77;46.20;101623.66;5024056;28;45428;-70
2023/09/14 08:16:30;;;;;;;;;26.33;25.00;;;;;28.87;44.89;101644.97;5020349;28;46363;-69
2023/09/14 08:18:56;;;;;;;;;29.67;26.67;;;;;28.62;44.98;101624.16;5020720;28;45322;-70
2023/09/14 08:21:21;;;;;;;;;22.67;22.33;;;;;28.77;44.46;101585.31;5029291;28;45455;-70
2023/09/14 08:23:46;;;;;;;;;25.33;25.33;;;;;28.77;44.06;101609.97;5037796;28;45416;-70
2023/09/14 08:26:12;;;;;;;;;22.67;20.33;;;;;28.61;44.26;101647.13;5031874;28;46832;-70
2023/09/14 08:28:37;;;;;;;;;21.33;18.00;;;;;28.26;44.58;101639.00;5051493;28;45222;-71
2023/09/14 08:31:02;;;;;;;;;24.33;23.33;;;;;27.92;46.11;101653.47;5019312;28;45369;-69
2023/09/14 08:33:28;;;;;;;;;24.67;23.67;;;;;27.50;46.62;101654.34;5055197;28;45542;-71
2023/09/14 08:35:54;;;;;;;;;29.67;26.33;;;;;27.16;47.28;101650.44;5059096;28;45608;-69
2023/09/14 08:38:19;;;;;;;;;24.33;21.67;;;;;26.91;48.08;101652.44;5041004;28;45530;-69
2023/09/14 08:40:46;;;;;;;;;19.33;16.00;;;;;26.71;48.26;101652.69;5044127;28;63164;-70
2023/09/14 08:43:12;;;;;;;;;20.67;19.67;;;;;26.40;47.97;101650.13;5054343;28;45261;-69
2023/09/14 08:45:39;;;;;;;;;26.33;23.00;;;;;26.22;48.90;101657.19;5056236;28;46686;-68
2023/09/14 08:48:05;;;;;;;;;18.67;17.67;;;;;25.97;49.31;101656.41;5007361;28;46305;-70
2023/09/14 08:50:32;;;;;;;;;25.00;20.00;;;;;25.77;49.26;101664.75;5039049;28;45512;-71
2023/09/14 08:52:58;;;;;;;;;18.67;17.00;;;;;25.55;50.27;101647.91;5051691;28;45447;-70
2023/09/14 08:55:34;;;;;;;;;19.00;16.00;;;;;25.48;50.80;101664.31;5041592;28;46946;-70
2023/09/14 08:58:00;;;;;;;;;18.00;17.33;;;;;25.41;50.50;101660.78;5028581;28;45297;-71
2023/09/14 09:00:28;;;;;;;;;16.00;16.00;;;;;25.36;49.99;101657.06;5036680;28;45222;-71
2023/09/14 09:02:54;;;;;;;;;20.33;18.00;;;;;25.21;50.56;101667.41;5040479;28;45637;-70
2023/09/14 09:05:21;;;;;;;;;22.00;21.67;;;;;25.03;51.32;101649.09;5035648;28;46550;-75
2023/09/14 09:07:48;;;;;;;;;24.00;20.00;;;;;25.03;51.69;101660.84;5024412;28;45400;-86
2023/09/14 09:10:21;;;;;;;;;22.67;21.67;;;;;24.82;52.28;101642.03;5031186;28;45467;-72
2023/09/14 09:12:46;;;;;;;;;19.00;18.33;;;;;25.24;51.20;101642.50;5032419;28;46541;-70
2023/09/14 09:15:13;;;;;;;;;18.00;15.67;;;;;26.07;50.01;101646.66;5038042;28;45639;-70
2023/09/14 09:17:40;;;;;;;;;15.67;14.33;;;;;26.87;47.55;101646.63;5046268;28;45599;-69
2023/09/14 09:20:13;;;;;;;;;17.67;16.67;;;;;28.20;45.22;101656.31;5019428;28;45277;-71
2023/09/14 09:22:41;;;;;;;;;11.00;11.00;;;;;29.45;41.48;101624.66;5038360;28;45526;-70
2023/09/14 09:25:06;;;;;;;;;11.00;11.00;;;;;30.01;40.62;101656.56;5025546;28;47415;-70
2023/09/14 09:27:32;;;;;;;;;9.75;9.50;;;;;29.71;40.32;101656.91;5043802;28;45549;-70
2023/09/14 09:30:00;;;;;;;;;9.00;8.33;;;;;29.49;40.67;101656.00;5041944;28;46789;-70
2023/09/14 09:32:26;;;;;;;;;11.00;11.00;;;;;29.46;40.68;101653.75;5051840;28;45610;-71
2023/09/14 09:34:51;;;;;;;;;10.00;9.67;;;;;28.82;41.08;101611.97;5058127;28;45998;-69
2023/09/14 09:37:17;;;;;;;;;13.67;12.67;;;;;28.57;42.13;101648.69;5058698;28;45347;-69
2023/09/14 09:39:44;;;;;;;;;14.33;14.33;;;;;28.17;43.34;101646.69;5057718;28;45400;-70
2023/09/14 09:42:12;;;;;;;;;22.00;18.67;;;;;27.48;44.22;101615.50;5040773;28;45736;-74
2023/09/14 09:44:39;;;;;;;;;20.33;17.67;;;;;27.25;45.72;101648.22;5040735;28;46897;-69
2023/09/14 09:47:04;;;;;;;;;21.00;19.67;;;;;26.94;46.41;101655.53;5043327;28;45375;-70
2023/09/14 09:49:31;;;;;;;;;21.00;17.33;;;;;26.41;47.42;101624.53;5028988;28;46835;-71
2023/09/14 09:51:57;;;;;;;;;19.33;16.00;;;;;26.23;47.71;101650.72;5029579;28;45718;-71
2023/09/14 09:54:24;;;;;;;;;18.67;18.00;;;;;25.70;48.68;101599.44;5024065;28;46968;-70
2023/09/14 09:56:51;;;;;;;;;11.00;11.00;;;;;25.98;48.30;101645.28;5019616;28;45332;-70
2023/09/14 09:59:17;;;;;;;;;20.00;17.67;;;;;25.97;48.84;101656.41;5045628;28;45342;-70
2023/09/14 10:01:48;;;;;;;;;20.00;18.00;;;;;25.69;49.50;101654.97;5036108;28;45656;-71
2023/09/14 10:04:15;;;;;;;;;20.33;17.33;;;;;25.31;49.67;101603.28;5018635;28;45833;-70
2023/09/14 10:06:48;;;;;;;;;10.00;10.00;;;;;25.49;49.33;101648.81;5027771;28;45432;-68
2023/09/14 10:09:14;;;;;;;;;12.67;12.67;;;;;25.47;50.12;101643.59;5045876;28;45476;-69
2023/09/14 10:11:40;;;;;;;;;12.33;11.00;;;;;25.30;49.61;101622.56;5046173;28;45362;-70
2023/09/14 10:14:08;;;;;;;;;9.00;8.00;;;;;25.40;49.53;101639.22;5034254;28;46440;-70
2023/09/14 10:16:44;;;;;;;;;10.33;10.00;;;;;25.37;49.66;101631.50;5039036;28;45299;-70
2023/09/14 10:19:11;;;;;;;;;15.00;12.33;;;;;25.42;49.45;101621.63;5030295;28;45440;-70
2023/09/14 10:21:39;;;;;;;;;7.00;7.00;;;;;25.56;49.71;101633.25;5008390;28;45596;-69
2023/09/14 10:24:06;;;;;;;;;15.33;11.33;;;;;25.37;49.25;101602.41;5029042;28;46709;-80
2023/09/14 10:26:38;;;;;;;;;14.33;12.33;;;;;25.63;49.63;101644.06;5023997;28;45562;-69
2023/09/14 10:29:07;;;;;;;;;15.67;14.00;;;;;25.55;49.85;101639.75;5023128;28;45530;-69
2023/09/14 10:31:34;;;;;;;;;9.33;9.33;;;;;25.55;48.98;101636.19;5034805;28;45530;-70
2023/09/14 10:34:00;;;;;;;;;11.33;10.67;;;;;25.45;49.54;101631.25;5023772;28;45997;-69
2023/09/14 10:36:30;;;;;;;;;10.00;8.67;;;;;25.33;49.00;101622.13;5023181;28;45320;-71
2023/09/14 10:39:00;;;;;;;;;10.67;10.00;;;;;25.36;49.29;101616.22;5038864;28;45613;-70
2023/09/14 10:41:27;;;;;;;;;11.00;11.00;;;;;25.56;48.95;101616.91;5038310;28;45618;-71
2023/09/14 10:43:53;;;;;;;;;11.67;11.67;;;;;25.60;49.28;101615.41;5031518;28;45799;-70
2023/09/14 10:46:24;;;;;;;;;10.00;8.33;;;;;25.67;48.59;101610.78;5030385;28;45500;-71
2023/09/14 10:48:50;;;;;;;;;10.67;8.33;;;;;25.61;48.44;101599.91;5032358;28;46290;-70
2023/09/14 10:51:15;;;;;;;;;9.67;8.33;;;;;25.51;48.75;101591.41;5040239;28;45410;-70
2023/09/14 10:53:42;;;;;;;;;11.33;11.33;;;;;25.42;49.40;101604.44;5048633;28;46845;-70
2023/09/14 10:56:21;;;;;;;;;12.67;12.67;;;;;25.30;49.73;101600.78;5016067;28;45642;-71
2023/09/14 10:58:51;;;;;;;;;7.50;7.50;;;;;25.24;49.60;101593.50;5035087;28;45507;-70
2023/09/14 11:01:24;;;;;;;;;10.00;9.00;;;;;25.13;48.37;101589.59;5026863;28;45509;-71
2023/09/14 11:04:13;;;;;;;;;8.50;6.75;;;;;25.01;49.19;101586.72;5038969;28;46574;-70
2023/09/14 11:06:46;;;;;;;;;9.00;9.00;;;;;24.69;49.15;101549.66;5026549;28;45489;-71